createdAt,value
2023-04-25T00:15:27.282Z,99080.80
2023-04-25T00:41:35.931Z,99074.40
2023-04-25T00:46:41.535Z,99068.20
2023-04-25T00:51:46.065Z,99063.40
2023-04-25T00:57:27.175Z,99061.60
2023-04-25T01:02:32.241Z,99066.20
2023-04-25T01:07:36.538Z,99060.20
2023-04-25T01:12:40.234Z,99064.40
2023-04-25T01:17:45.534Z,99064.00
2023-04-25T01:22:49.519Z,99062.40
2023-04-25T01:28:44.643Z,99069.40
2023-04-25T01:33:49.415Z,99063.60
2023-04-25T01:38:53.676Z,99064.40
2023-04-25T01:43:58.039Z,99059.80
2023-04-25T01:53:27.833Z,99060.60
2023-04-25T01:58:31.643Z,99056.20
2023-04-25T02:03:36.619Z,99059.20
2023-04-25T02:08:40.614Z,99050.20
2023-04-25T02:13:53.721Z,99039.40
2023-04-25T02:18:57.347Z,99040.00
2023-04-25T02:24:01.211Z,99041.60
2023-04-25T02:29:04.822Z,99048.80
2023-04-25T02:34:08.728Z,99043.20
2023-04-25T02:39:12.803Z,99029.40
2023-04-25T02:44:28.774Z,99036.40
2023-04-25T02:49:32.519Z,99028.20
2023-04-25T02:54:41.817Z,99032.00
2023-04-25T02:59:45.572Z,99030.80
2023-04-25T03:04:55.340Z,99027.00
2023-04-25T03:10:49.552Z,99034.40
2023-04-25T03:17:15.085Z,99037.00
2023-04-25T03:31:14.373Z,99034.20
2023-04-25T03:36:17.900Z,99032.60
2023-04-25T03:41:36.971Z,99039.60
2023-04-25T03:46:40.392Z,99036.40
2023-04-25T03:51:44.026Z,99040.80
2023-04-25T03:56:47.906Z,99041.40
2023-04-25T04:01:51.785Z,99044.20
2023-04-25T04:06:55.588Z,99049.40
2023-04-25T04:12:05.838Z,99049.80
2023-04-25T04:17:09.392Z,99050.60
2023-04-25T04:22:13.112Z,99055.60
2023-04-25T04:27:22.976Z,99056.20
2023-04-25T04:32:31.758Z,99055.20
2023-04-25T04:37:35.666Z,99062.60
2023-04-25T04:43:15.256Z,99066.60
2023-04-25T04:49:36.794Z,99063.80
2023-04-25T05:09:54.598Z,99060.00
2023-04-25T05:14:58.864Z,99065.00
2023-04-25T05:27:23.785Z,99066.00
2023-04-25T05:39:34.973Z,99066.20
2023-04-25T05:45:58.452Z,99062.40
2023-04-25T05:52:19.215Z,99058.80
2023-04-25T06:05:35.515Z,99062.40
2023-04-25T06:17:46.972Z,99077.40
2023-04-25T06:23:41.662Z,99079.60
2023-04-25T06:28:45.378Z,99083.40
2023-04-25T06:35:05.186Z,99090.20
2023-04-25T06:40:09.936Z,99091.40
2023-04-25T06:45:35.591Z,99096.00
2023-04-25T06:51:05.108Z,99091.00
2023-04-25T06:56:44.765Z,99090.60
2023-04-25T07:21:16.187Z,99115.40
2023-04-25T07:26:46.233Z,99122.80
2023-04-25T07:32:16.216Z,99126.40
2023-04-25T07:37:42.787Z,99134.60
2023-04-25T07:43:36.831Z,99143.80
2023-04-25T07:48:56.836Z,99149.20
2023-04-25T07:54:26.574Z,99152.80
2023-04-25T08:06:34.958Z,99169.40
2023-04-25T08:12:05.688Z,99175.00
2023-04-25T08:17:31.888Z,99178.20
2023-04-25T08:23:00.801Z,99188.00
2023-04-25T08:28:11.884Z,99195.00
2023-04-25T08:33:40.913Z,99205.00
2023-04-25T08:38:55.641Z,99211.20
2023-04-25T08:44:26.296Z,99212.60
2023-04-25T08:49:33.253Z,99216.40
2023-04-25T08:54:45.885Z,99223.80
2023-04-25T09:00:21.152Z,99230.60
2023-04-25T09:06:41.846Z,99240.20
2023-04-25T09:11:45.591Z,99245.60
2023-04-25T09:16:59.182Z,99250.00
2023-04-25T09:23:22.726Z,99256.60
2023-04-25T09:28:31.129Z,99259.60
2023-04-25T09:34:16.970Z,99264.80
2023-04-25T09:40:11.886Z,99269.60
2023-04-25T09:45:18.327Z,99270.60
2023-04-25T09:51:07.368Z,99275.40
2023-04-25T09:56:13.987Z,99282.20
2023-04-25T10:02:34.917Z,99284.40
2023-04-25T10:09:12.007Z,99290.20
2023-04-25T10:14:17.372Z,99284.60
2023-04-25T10:19:38.615Z,99289.60
2023-04-25T10:25:58.756Z,99297.80
2023-04-25T10:31:29.029Z,99309.20
2023-04-25T10:36:33.938Z,99316.20
2023-04-25T10:42:27.716Z,99313.60
2023-04-25T10:47:46.299Z,99317.40
2023-04-25T10:53:40.926Z,99319.20
2023-04-25T10:59:12.176Z,99325.80
2023-04-25T11:04:42.738Z,99328.80
2023-04-25T11:10:05.589Z,99332.40
2023-04-25T11:15:36.228Z,99335.20
2023-04-25T11:21:05.073Z,99339.60
2023-04-25T11:26:33.173Z,99345.80
2023-04-25T11:33:04.746Z,99346.40
2023-04-25T11:38:08.372Z,99349.00
2023-04-25T11:43:12.137Z,99352.40
2023-04-25T11:48:42.092Z,99359.20
2023-04-25T11:53:59.067Z,99355.40
2023-04-25T12:00:19.703Z,99352.80
2023-04-25T12:05:49.038Z,99353.00
2023-04-25T12:11:23.787Z,99349.60
2023-04-25T12:17:44.336Z,99344.40
2023-04-25T12:22:50.084Z,99338.80
2023-04-25T12:29:11.411Z,99343.60
2023-04-25T12:34:15.138Z,99354.00
2023-04-25T12:40:41.714Z,99355.40
2023-04-25T12:46:03.582Z,99347.60
2023-04-25T12:51:34.212Z,99339.40
2023-04-25T12:56:59.671Z,99339.20
2023-04-25T13:02:29.001Z,99344.40
2023-04-25T13:08:39.566Z,99343.80
2023-04-25T13:13:43.792Z,99344.60
2023-04-25T13:19:38.184Z,99351.00
2023-04-25T13:26:06.482Z,99349.00
2023-04-25T13:32:29.028Z,99347.40
2023-04-25T13:37:34.053Z,99345.60
2023-04-25T13:42:40.432Z,99339.80
2023-04-25T13:48:36.635Z,99345.60
2023-04-25T13:53:41.529Z,99348.00
2023-04-25T13:58:45.055Z,99346.60
2023-04-25T14:03:49.797Z,99346.80
2023-04-25T14:16:11.028Z,99342.20
2023-04-25T14:21:15.198Z,99349.40
2023-04-25T14:26:18.744Z,99354.00
2023-04-25T14:31:48.483Z,99349.40
2023-04-25T14:36:55.206Z,99349.40
2023-04-25T14:43:27.319Z,99351.80
2023-04-25T14:50:05.930Z,99360.60
2023-04-25T15:03:32.082Z,99375.80
2023-04-25T15:08:45.005Z,99376.20
2023-04-25T15:13:54.697Z,99378.00
2023-04-25T15:25:55.198Z,99384.80
2023-04-25T15:45:53.122Z,99379.40
2023-04-25T15:51:19.029Z,99377.20
2023-04-25T16:03:48.495Z,99379.00
2023-04-25T16:17:31.138Z,99379.00
2023-04-25T16:22:43.980Z,99379.00
2023-04-25T16:28:46.403Z,99386.40
2023-04-25T16:33:55.014Z,99395.00
2023-04-25T16:39:03.937Z,99392.60
2023-04-25T16:44:11.161Z,99396.60
2023-04-25T16:49:21.749Z,99401.00
2023-04-25T16:54:33.704Z,99399.60
2023-04-25T17:06:47.739Z,99414.20
2023-04-25T17:11:56.467Z,99416.40
2023-04-25T17:17:06.611Z,99415.00
2023-04-25T17:22:38.906Z,99416.00
2023-04-25T17:36:01.038Z,99424.40
2023-04-25T17:41:16.279Z,99430.60
2023-04-25T17:47:14.400Z,99432.20
2023-04-25T17:52:23.545Z,99435.80
2023-04-25T17:57:32.117Z,99440.00
2023-04-25T18:09:34.609Z,99450.80
2023-04-25T18:15:07.517Z,99462.80
2023-04-25T18:20:19.518Z,99460.40
2023-04-25T18:40:21.806Z,99490.20
2023-04-25T18:45:32.759Z,99496.60
2023-04-25T18:50:39.776Z,99509.60
2023-04-25T18:56:28.420Z,99510.20
2023-04-25T19:01:38.641Z,99519.40
2023-04-25T19:06:50.111Z,99532.60
2023-04-25T19:11:57.004Z,99535.00
2023-04-25T19:17:12.086Z,99551.60
2023-04-25T19:22:19.346Z,99567.80
2023-04-25T19:27:25.971Z,99579.00
2023-04-25T19:32:34.206Z,99586.00
2023-04-25T19:37:48.306Z,99589.20
2023-04-25T19:43:00.735Z,99593.80
2023-04-25T19:56:22.208Z,99598.60
2023-04-25T20:01:34.051Z,99601.40
2023-04-25T20:26:22.675Z,99606.40
2023-04-25T20:38:51.306Z,99597.60
2023-04-25T20:44:56.640Z,99599.60
2023-04-25T20:50:05.515Z,99607.20
2023-04-25T20:56:00.327Z,99608.60
2023-04-25T21:01:08.984Z,99602.20
2023-04-25T21:07:36.283Z,99601.80
2023-04-25T21:21:14.727Z,99595.60
2023-04-25T21:26:21.445Z,99596.60
2023-04-25T21:31:52.609Z,99587.60
2023-04-25T21:36:59.512Z,99582.40
2023-04-25T21:42:09.777Z,99581.80
2023-04-25T21:48:30.880Z,99590.60
2023-04-25T22:08:34.123Z,99588.60
2023-04-25T22:20:58.893Z,99585.60
2023-04-25T22:26:02.889Z,99583.00
2023-04-25T22:38:08.717Z,99579.40
2023-04-25T22:50:20.852Z,99587.40
2023-04-25T22:55:24.624Z,99581.00
2023-04-25T23:00:30.596Z,99581.20
2023-04-25T23:05:34.118Z,99581.40
2023-04-25T23:11:29.124Z,99578.00
2023-04-25T23:16:32.639Z,99577.40
2023-04-25T23:21:36.327Z,99570.40
2023-04-25T23:26:43.371Z,99568.60
2023-04-25T23:33:09.933Z,99569.40
2023-04-25T23:38:14.066Z,99574.20
2023-04-25T23:43:17.942Z,99577.40
2023-04-25T23:49:12.925Z,99574.40
2023-04-25T23:54:16.925Z,99579.20
2023-04-25T23:59:21.289Z,99581.60
